sensor_id;sensor_type;location;lat;lon;timestamp;temperature;humidity
21778;DHT22;11050;52.222;20.916;2023-07-29T00:02:01;16.70;99.90
21778;DHT22;11050;52.222;20.916;2023-07-29T00:04:26;16.70;99.90
21778;DHT22;11050;52.222;20.916;2023-07-29T00:06:52;16.70;99.90
21778;DHT22;11050;52.222;20.916;2023-07-29T00:09:18;16.70;99.90
21778;DHT22;11050;52.222;20.916;2023-07-29T00:11:44;16.70;99.90
21778;DHT22;11050;52.222;20.916;2023-07-29T00:14:09;16.70;99.90
21778;DHT22;11050;52.222;20.916;2023-07-29T00:16:35;16.70;99.90
21778;DHT22;11050;52.222;20.916;2023-07-29T00:19:02;16.60;99.90
21778;DHT22;11050;52.222;20.916;2023-07-29T00:21:28;16.60;99.90
21778;DHT22;11050;52.222;20.916;2023-07-29T00:23:54;16.60;99.90
21778;DHT22;11050;52.222;20.916;2023-07-29T00:26:22;16.60;99.90
21778;DHT22;11050;52.222;20.916;2023-07-29T00:28:51;16.60;99.90
21778;DHT22;11050;52.222;20.916;2023-07-29T00:31:17;16.60;99.90
21778;DHT22;11050;52.222;20.916;2023-07-29T00:33:43;16.60;99.90
21778;DHT22;11050;52.222;20.916;2023-07-29T00:36:08;16.60;99.90
21778;DHT22;11050;52.222;20.916;2023-07-29T00:38:34;16.70;99.90
21778;DHT22;11050;52.222;20.916;2023-07-29T00:41:02;16.60;99.90
21778;DHT22;11050;52.222;20.916;2023-07-29T00:43:28;16.70;99.90
21778;DHT22;11050;52.222;20.916;2023-07-29T00:45:54;16.60;99.90
21778;DHT22;11050;52.222;20.916;2023-07-29T00:48:23;16.60;99.90
21778;DHT22;11050;52.222;20.916;2023-07-29T00:50:49;16.60;99.90
21778;DHT22;11050;52.222;20.916;2023-07-29T00:53:16;16.60;99.90
21778;DHT22;11050;52.222;20.916;2023-07-29T00:55:42;16.60;99.90
21778;DHT22;11050;52.222;20.916;2023-07-29T00:58:08;16.60;99.90
21778;DHT22;11050;52.222;20.916;2023-07-29T01:00:35;16.60;99.90
21778;DHT22;11050;52.222;20.916;2023-07-29T01:03:02;16.60;99.90
21778;DHT22;11050;52.222;20.916;2023-07-29T01:05:34;16.60;99.90
21778;DHT22;11050;52.222;20.916;2023-07-29T01:08:11;16.60;99.90
21778;DHT22;11050;52.222;20.916;2023-07-29T01:11:37;16.60;99.90
21778;DHT22;11050;52.222;20.916;2023-07-29T01:14:06;16.60;99.90
21778;DHT22;11050;52.222;20.916;2023-07-29T01:16:52;16.60;99.90
21778;DHT22;11050;52.222;20.916;2023-07-29T01:22:32;16.50;99.90
21778;DHT22;11050;52.222;20.916;2023-07-29T01:24:59;16.50;99.90
21778;DHT22;11050;52.222;20.916;2023-07-29T01:27:25;16.50;99.90
21778;DHT22;11050;52.222;20.916;2023-07-29T01:29:52;16.50;99.90
21778;DHT22;11050;52.222;20.916;2023-07-29T01:32:43;16.50;99.90
21778;DHT22;11050;52.222;20.916;2023-07-29T01:35:19;16.50;99.90
21778;DHT22;11050;52.222;20.916;2023-07-29T01:37:55;16.50;99.90
21778;DHT22;11050;52.222;20.916;2023-07-29T01:40:27;16.40;99.90
21778;DHT22;11050;52.222;20.916;2023-07-29T01:42:54;16.40;99.90
21778;DHT22;11050;52.222;20.916;2023-07-29T01:45:23;16.40;99.90
21778;DHT22;11050;52.222;20.916;2023-07-29T01:47:51;16.40;99.90
21778;DHT22;11050;52.222;20.916;2023-07-29T01:50:17;16.40;99.90
21778;DHT22;11050;52.222;20.916;2023-07-29T01:52:43;16.40;99.90
21778;DHT22;11050;52.222;20.916;2023-07-29T01:55:09;16.30;99.90
21778;DHT22;11050;52.222;20.916;2023-07-29T01:57:35;16.30;99.90
21778;DHT22;11050;52.222;20.916;2023-07-29T02:00:00;16.30;99.90
21778;DHT22;11050;52.222;20.916;2023-07-29T02:02:26;16.30;99.90
21778;DHT22;11050;52.222;20.916;2023-07-29T02:04:52;16.20;99.90
21778;DHT22;11050;52.222;20.916;2023-07-29T02:07:18;16.20;99.90
21778;DHT22;11050;52.222;20.916;2023-07-29T02:09:45;16.20;99.90
21778;DHT22;11050;52.222;20.916;2023-07-29T02:12:10;16.20;99.90
21778;DHT22;11050;52.222;20.916;2023-07-29T02:14:36;16.20;99.90
21778;DHT22;11050;52.222;20.916;2023-07-29T02:17:02;16.20;99.90
21778;DHT22;11050;52.222;20.916;2023-07-29T02:19:28;16.20;99.90
21778;DHT22;11050;52.222;20.916;2023-07-29T02:21:53;16.20;99.90
21778;DHT22;11050;52.222;20.916;2023-07-29T02:24:19;16.20;99.90
21778;DHT22;11050;52.222;20.916;2023-07-29T02:26:45;16.20;99.90
21778;DHT22;11050;52.222;20.916;2023-07-29T02:29:10;16.20;99.90
21778;DHT22;11050;52.222;20.916;2023-07-29T02:31:36;16.10;99.90
21778;DHT22;11050;52.222;20.916;2023-07-29T02:34:03;16.10;99.90
21778;DHT22;11050;52.222;20.916;2023-07-29T02:36:29;16.10;99.90
21778;DHT22;11050;52.222;20.916;2023-07-29T02:38:55;16.00;99.90
21778;DHT22;11050;52.222;20.916;2023-07-29T02:41:21;16.00;99.90
21778;DHT22;11050;52.222;20.916;2023-07-29T02:43:50;16.00;99.90
21778;DHT22;11050;52.222;20.916;2023-07-29T02:46:16;16.00;99.90
21778;DHT22;11050;52.222;20.916;2023-07-29T02:48:43;15.90;99.90
21778;DHT22;11050;52.222;20.916;2023-07-29T02:51:10;15.90;99.90
21778;DHT22;11050;52.222;20.916;2023-07-29T02:53:35;15.90;99.90
21778;DHT22;11050;52.222;20.916;2023-07-29T02:56:04;15.90;99.90
21778;DHT22;11050;52.222;20.916;2023-07-29T02:58:31;15.80;99.90
21778;DHT22;11050;52.222;20.916;2023-07-29T03:01:01;15.80;99.90
21778;DHT22;11050;52.222;20.916;2023-07-29T03:03:28;15.80;99.90
21778;DHT22;11050;52.222;20.916;2023-07-29T03:05:59;15.80;99.90
21778;DHT22;11050;52.222;20.916;2023-07-29T03:08:26;15.80;99.90
21778;DHT22;11050;52.222;20.916;2023-07-29T03:10:52;15.80;99.90
21778;DHT22;11050;52.222;20.916;2023-07-29T03:13:18;15.80;99.90
21778;DHT22;11050;52.222;20.916;2023-07-29T03:15:43;15.70;99.90
21778;DHT22;11050;52.222;20.916;2023-07-29T03:18:09;15.70;99.90
21778;DHT22;11050;52.222;20.916;2023-07-29T03:20:35;15.70;99.90
21778;DHT22;11050;52.222;20.916;2023-07-29T03:23:01;15.70;99.90
21778;DHT22;11050;52.222;20.916;2023-07-29T03:25:26;15.70;99.90
21778;DHT22;11050;52.222;20.916;2023-07-29T03:27:52;15.70;99.90
21778;DHT22;11050;52.222;20.916;2023-07-29T03:30:21;15.70;99.90
21778;DHT22;11050;52.222;20.916;2023-07-29T03:32:48;15.70;99.90
21778;DHT22;11050;52.222;20.916;2023-07-29T03:35:14;15.60;99.90
21778;DHT22;11050;52.222;20.916;2023-07-29T03:37:40;15.60;99.90
21778;DHT22;11050;52.222;20.916;2023-07-29T03:40:07;15.60;99.90
21778;DHT22;11050;52.222;20.916;2023-07-29T03:42:35;15.60;99.90
21778;DHT22;11050;52.222;20.916;2023-07-29T03:45:01;15.60;99.90
21778;DHT22;11050;52.222;20.916;2023-07-29T03:47:27;15.60;99.90
21778;DHT22;11050;52.222;20.916;2023-07-29T03:49:53;15.60;99.90
21778;DHT22;11050;52.222;20.916;2023-07-29T03:52:19;15.70;99.90
21778;DHT22;11050;52.222;20.916;2023-07-29T03:54:45;15.70;99.90
21778;DHT22;11050;52.222;20.916;2023-07-29T03:57:11;15.70;99.90
21778;DHT22;11050;52.222;20.916;2023-07-29T03:59:37;15.70;99.90
21778;DHT22;11050;52.222;20.916;2023-07-29T04:02:02;15.70;99.90
21778;DHT22;11050;52.222;20.916;2023-07-29T04:04:28;15.70;99.90
21778;DHT22;11050;52.222;20.916;2023-07-29T04:06:54;15.70;99.90
21778;DHT22;11050;52.222;20.916;2023-07-29T04:09:20;15.70;99.90
21778;DHT22;11050;52.222;20.916;2023-07-29T04:11:45;15.70;99.90
21778;DHT22;11050;52.222;20.916;2023-07-29T04:14:11;15.80;99.90
21778;DHT22;11050;52.222;20.916;2023-07-29T04:16:37;15.80;99.90
21778;DHT22;11050;52.222;20.916;2023-07-29T04:19:03;15.80;99.90
21778;DHT22;11050;52.222;20.916;2023-07-29T04:21:28;15.80;99.90
21778;DHT22;11050;52.222;20.916;2023-07-29T04:23:54;15.90;99.90
21778;DHT22;11050;52.222;20.916;2023-07-29T04:26:20;15.90;99.90
21778;DHT22;11050;52.222;20.916;2023-07-29T04:28:45;15.90;99.90
21778;DHT22;11050;52.222;20.916;2023-07-29T04:31:11;15.90;99.90
21778;DHT22;11050;52.222;20.916;2023-07-29T04:33:37;16.00;99.90
21778;DHT22;11050;52.222;20.916;2023-07-29T04:36:03;16.00;99.90
21778;DHT22;11050;52.222;20.916;2023-07-29T04:38:33;16.00;99.90
21778;DHT22;11050;52.222;20.916;2023-07-29T04:40:59;16.00;99.90
21778;DHT22;11050;52.222;20.916;2023-07-29T04:43:30;16.00;99.90
21778;DHT22;11050;52.222;20.916;2023-07-29T04:45:56;16.10;99.90
21778;DHT22;11050;52.222;20.916;2023-07-29T04:48:22;16.10;99.90
21778;DHT22;11050;52.222;20.916;2023-07-29T04:50:48;16.20;99.90
21778;DHT22;11050;52.222;20.916;2023-07-29T04:53:14;16.20;99.90
21778;DHT22;11050;52.222;20.916;2023-07-29T04:55:43;16.30;99.90
21778;DHT22;11050;52.222;20.916;2023-07-29T04:58:10;16.30;99.90
21778;DHT22;11050;52.222;20.916;2023-07-29T05:00:35;16.30;99.90
21778;DHT22;11050;52.222;20.916;2023-07-29T05:03:01;16.30;99.90
21778;DHT22;11050;52.222;20.916;2023-07-29T05:05:27;16.40;99.90
21778;DHT22;11050;52.222;20.916;2023-07-29T05:07:53;16.40;99.90
21778;DHT22;11050;52.222;20.916;2023-07-29T05:10:19;16.40;99.90
21778;DHT22;11050;52.222;20.916;2023-07-29T05:12:45;16.50;99.90
21778;DHT22;11050;52.222;20.916;2023-07-29T05:15:10;16.60;99.90
21778;DHT22;11050;52.222;20.916;2023-07-29T05:17:36;16.60;99.90
21778;DHT22;11050;52.222;20.916;2023-07-29T05:20:02;16.70;99.90
21778;DHT22;11050;52.222;20.916;2023-07-29T05:22:28;16.70;99.90
21778;DHT22;11050;52.222;20.916;2023-07-29T05:24:54;16.70;99.90
21778;DHT22;11050;52.222;20.916;2023-07-29T05:27:19;16.80;99.90
21778;DHT22;11050;52.222;20.916;2023-07-29T05:29:45;16.80;99.90
21778;DHT22;11050;52.222;20.916;2023-07-29T05:32:11;16.80;99.90
21778;DHT22;11050;52.222;20.916;2023-07-29T05:34:37;16.90;99.90
21778;DHT22;11050;52.222;20.916;2023-07-29T05:37:03;17.00;99.90
21778;DHT22;11050;52.222;20.916;2023-07-29T05:39:29;17.10;99.90
21778;DHT22;11050;52.222;20.916;2023-07-29T05:41:55;17.20;99.90
21778;DHT22;11050;52.222;20.916;2023-07-29T05:44:21;17.30;99.90
21778;DHT22;11050;52.222;20.916;2023-07-29T05:46:46;17.40;99.90
21778;DHT22;11050;52.222;20.916;2023-07-29T05:49:13;17.50;99.90
21778;DHT22;11050;52.222;20.916;2023-07-29T05:51:38;17.50;99.90
21778;DHT22;11050;52.222;20.916;2023-07-29T05:54:04;17.60;99.90
21778;DHT22;11050;52.222;20.916;2023-07-29T05:56:30;17.60;99.90
21778;DHT22;11050;52.222;20.916;2023-07-29T05:58:57;17.60;99.90
21778;DHT22;11050;52.222;20.916;2023-07-29T06:01:23;17.70;99.90
21778;DHT22;11050;52.222;20.916;2023-07-29T06:03:49;17.70;99.90
21778;DHT22;11050;52.222;20.916;2023-07-29T06:06:15;17.80;99.90
21778;DHT22;11050;52.222;20.916;2023-07-29T06:08:41;17.80;99.90
21778;DHT22;11050;52.222;20.916;2023-07-29T06:11:06;17.80;99.90
21778;DHT22;11050;52.222;20.916;2023-07-29T06:13:32;17.80;99.90
21778;DHT22;11050;52.222;20.916;2023-07-29T06:15:58;17.90;99.90
21778;DHT22;11050;52.222;20.916;2023-07-29T06:18:24;17.90;99.90
21778;DHT22;11050;52.222;20.916;2023-07-29T06:20:50;18.00;99.90
21778;DHT22;11050;52.222;20.916;2023-07-29T06:23:17;18.10;99.90
21778;DHT22;11050;52.222;20.916;2023-07-29T06:25:42;18.10;99.90
21778;DHT22;11050;52.222;20.916;2023-07-29T06:28:09;18.10;99.90
21778;DHT22;11050;52.222;20.916;2023-07-29T06:30:35;18.20;99.90
21778;DHT22;11050;52.222;20.916;2023-07-29T06:33:01;18.30;99.90
21778;DHT22;11050;52.222;20.916;2023-07-29T06:35:28;18.30;99.90
21778;DHT22;11050;52.222;20.916;2023-07-29T06:37:54;18.40;99.90
21778;DHT22;11050;52.222;20.916;2023-07-29T06:40:20;18.50;99.90
21778;DHT22;11050;52.222;20.916;2023-07-29T06:42:46;18.60;99.90
21778;DHT22;11050;52.222;20.916;2023-07-29T06:45:12;18.70;99.90
21778;DHT22;11050;52.222;20.916;2023-07-29T06:47:37;18.80;99.90
21778;DHT22;11050;52.222;20.916;2023-07-29T06:50:04;18.80;99.90
21778;DHT22;11050;52.222;20.916;2023-07-29T06:52:30;18.90;99.90
21778;DHT22;11050;52.222;20.916;2023-07-29T06:54:56;18.90;99.90
21778;DHT22;11050;52.222;20.916;2023-07-29T06:57:21;18.90;99.90
21778;DHT22;11050;52.222;20.916;2023-07-29T06:59:48;18.90;99.90
21778;DHT22;11050;52.222;20.916;2023-07-29T07:02:13;19.00;99.90
21778;DHT22;11050;52.222;20.916;2023-07-29T07:04:39;19.10;99.90
21778;DHT22;11050;52.222;20.916;2023-07-29T07:07:05;19.20;99.90
21778;DHT22;11050;52.222;20.916;2023-07-29T07:09:31;19.50;99.90
21778;DHT22;11050;52.222;20.916;2023-07-29T07:11:56;19.70;99.90
21778;DHT22;11050;52.222;20.916;2023-07-29T07:14:22;19.90;99.90
21778;DHT22;11050;52.222;20.916;2023-07-29T07:16:48;20.00;99.90
21778;DHT22;11050;52.222;20.916;2023-07-29T07:19:13;20.10;99.90
21778;DHT22;11050;52.222;20.916;2023-07-29T07:21:39;20.10;99.90
21778;DHT22;11050;52.222;20.916;2023-07-29T07:24:05;20.10;99.90
21778;DHT22;11050;52.222;20.916;2023-07-29T07:26:31;20.00;99.90
21778;DHT22;11050;52.222;20.916;2023-07-29T07:28:57;20.00;99.90
21778;DHT22;11050;52.222;20.916;2023-07-29T07:31:22;19.90;99.90
21778;DHT22;11050;52.222;20.916;2023-07-29T07:33:48;19.90;99.90
21778;DHT22;11050;52.222;20.916;2023-07-29T07:36:14;19.80;99.90
21778;DHT22;11050;52.222;20.916;2023-07-29T07:38:41;19.70;99.90
21778;DHT22;11050;52.222;20.916;2023-07-29T07:41:07;19.60;99.90
21778;DHT22;11050;52.222;20.916;2023-07-29T07:43:32;19.50;99.90
21778;DHT22;11050;52.222;20.916;2023-07-29T07:46:00;19.60;99.90
21778;DHT22;11050;52.222;20.916;2023-07-29T07:48:27;19.50;99.90
21778;DHT22;11050;52.222;20.916;2023-07-29T07:50:53;19.50;99.90
21778;DHT22;11050;52.222;20.916;2023-07-29T07:53:19;19.60;99.90
21778;DHT22;11050;52.222;20.916;2023-07-29T07:55:47;19.70;99.90
21778;DHT22;11050;52.222;20.916;2023-07-29T07:58:13;19.80;99.90
21778;DHT22;11050;52.222;20.916;2023-07-29T08:00:39;19.80;99.90
21778;DHT22;11050;52.222;20.916;2023-07-29T08:03:04;20.00;99.90
21778;DHT22;11050;52.222;20.916;2023-07-29T08:05:30;20.10;99.90
21778;DHT22;11050;52.222;20.916;2023-07-29T08:07:57;20.20;99.90
21778;DHT22;11050;52.222;20.916;2023-07-29T08:10:23;20.40;99.90
21778;DHT22;11050;52.222;20.916;2023-07-29T08:12:48;20.50;99.90
21778;DHT22;11050;52.222;20.916;2023-07-29T08:15:14;20.60;99.90
21778;DHT22;11050;52.222;20.916;2023-07-29T08:17:40;20.80;99.90
21778;DHT22;11050;52.222;20.916;2023-07-29T08:20:06;20.90;99.90
21778;DHT22;11050;52.222;20.916;2023-07-29T08:22:32;20.90;99.90
21778;DHT22;11050;52.222;20.916;2023-07-29T08:24:58;21.00;99.90
21778;DHT22;11050;52.222;20.916;2023-07-29T08:27:24;21.10;99.90
21778;DHT22;11050;52.222;20.916;2023-07-29T08:29:49;21.20;99.90
21778;DHT22;11050;52.222;20.916;2023-07-29T08:32:15;21.40;99.90
21778;DHT22;11050;52.222;20.916;2023-07-29T08:34:41;21.50;99.90
21778;DHT22;11050;52.222;20.916;2023-07-29T08:37:06;21.70;99.90
21778;DHT22;11050;52.222;20.916;2023-07-29T08:39:32;21.70;99.90
21778;DHT22;11050;52.222;20.916;2023-07-29T08:42:08;21.80;99.90
21778;DHT22;11050;52.222;20.916;2023-07-29T08:44:43;21.90;99.90
21778;DHT22;11050;52.222;20.916;2023-07-29T08:47:11;21.90;99.90
21778;DHT22;11050;52.222;20.916;2023-07-29T08:49:39;21.90;99.90
21778;DHT22;11050;52.222;20.916;2023-07-29T08:52:07;21.90;99.90
21778;DHT22;11050;52.222;20.916;2023-07-29T08:54:34;21.90;99.90
21778;DHT22;11050;52.222;20.916;2023-07-29T08:57:01;22.00;99.90
21778;DHT22;11050;52.222;20.916;2023-07-29T08:59:28;22.20;99.90
21778;DHT22;11050;52.222;20.916;2023-07-29T09:01:54;22.50;99.90
21778;DHT22;11050;52.222;20.916;2023-07-29T09:04:22;22.70;99.90
21778;DHT22;11050;52.222;20.916;2023-07-29T09:06:50;23.00;99.90
21778;DHT22;11050;52.222;20.916;2023-07-29T09:09:17;23.10;99.90
21778;DHT22;11050;52.222;20.916;2023-07-29T09:11:43;23.30;99.90
21778;DHT22;11050;52.222;20.916;2023-07-29T09:14:10;23.40;99.90
21778;DHT22;11050;52.222;20.916;2023-07-29T09:16:36;23.40;99.90
21778;DHT22;11050;52.222;20.916;2023-07-29T09:19:03;23.50;99.90
21778;DHT22;11050;52.222;20.916;2023-07-29T09:21:29;23.60;99.90
21778;DHT22;11050;52.222;20.916;2023-07-29T09:23:55;23.60;99.90
21778;DHT22;11050;52.222;20.916;2023-07-29T09:26:28;23.70;99.90
21778;DHT22;11050;52.222;20.916;2023-07-29T09:28:58;23.90;99.90
21778;DHT22;11050;52.222;20.916;2023-07-29T09:31:26;23.90;99.90
21778;DHT22;11050;52.222;20.916;2023-07-29T09:34:00;24.00;99.90
21778;DHT22;11050;52.222;20.916;2023-07-29T09:36:31;24.10;98.20
21778;DHT22;11050;52.222;20.916;2023-07-29T09:38:58;24.10;98.20
21778;DHT22;11050;52.222;20.916;2023-07-29T09:41:28;24.10;97.60
21778;DHT22;11050;52.222;20.916;2023-07-29T09:43:58;24.00;97.60
21778;DHT22;11050;52.222;20.916;2023-07-29T09:46:25;23.80;98.60
21778;DHT22;11050;52.222;20.916;2023-07-29T09:48:58;23.80;99.10
21778;DHT22;11050;52.222;20.916;2023-07-29T09:51:24;23.70;99.30
21778;DHT22;11050;52.222;20.916;2023-07-29T09:53:51;23.70;99.00
21778;DHT22;11050;52.222;20.916;2023-07-29T09:56:24;23.70;97.90
21778;DHT22;11050;52.222;20.916;2023-07-29T09:58:57;23.80;97.70
21778;DHT22;11050;52.222;20.916;2023-07-29T10:01:24;23.80;98.10
21778;DHT22;11050;52.222;20.916;2023-07-29T10:03:50;23.90;96.50
21778;DHT22;11050;52.222;20.916;2023-07-29T10:06:17;24.00;95.00
21778;DHT22;11050;52.222;20.916;2023-07-29T10:08:44;24.10;95.50
21778;DHT22;11050;52.222;20.916;2023-07-29T10:11:11;24.20;96.50
21778;DHT22;11050;52.222;20.916;2023-07-29T10:13:38;24.30;98.60
21778;DHT22;11050;52.222;20.916;2023-07-29T10:16:05;24.40;96.40
21778;DHT22;11050;52.222;20.916;2023-07-29T10:18:31;24.60;95.50
21778;DHT22;11050;52.222;20.916;2023-07-29T10:20:59;24.70;95.50
21778;DHT22;11050;52.222;20.916;2023-07-29T10:23:28;24.90;94.30
21778;DHT22;11050;52.222;20.916;2023-07-29T10:26:04;24.90;92.50
21778;DHT22;11050;52.222;20.916;2023-07-29T10:28:32;24.70;92.70
21778;DHT22;11050;52.222;20.916;2023-07-29T10:31:00;24.70;93.10
21778;DHT22;11050;52.222;20.916;2023-07-29T10:33:26;24.60;94.60
21778;DHT22;11050;52.222;20.916;2023-07-29T10:35:53;24.70;93.50
21778;DHT22;11050;52.222;20.916;2023-07-29T10:38:22;24.80;95.60
21778;DHT22;11050;52.222;20.916;2023-07-29T10:40:54;24.90;93.10
21778;DHT22;11050;52.222;20.916;2023-07-29T10:43:26;25.00;91.20
21778;DHT22;11050;52.222;20.916;2023-07-29T10:45:53;25.20;90.80
21778;DHT22;11050;52.222;20.916;2023-07-29T10:51:28;25.20;88.00
21778;DHT22;11050;52.222;20.916;2023-07-29T10:54:04;25.30;87.40
21778;DHT22;11050;52.222;20.916;2023-07-29T10:56:36;25.40;86.20
21778;DHT22;11050;52.222;20.916;2023-07-29T11:01:41;25.90;84.50
21778;DHT22;11050;52.222;20.916;2023-07-29T11:17:43;27.50;72.70
21778;DHT22;11050;52.222;20.916;2023-07-29T11:20:13;27.70;71.80
21778;DHT22;11050;52.222;20.916;2023-07-29T11:22:40;27.90;69.00
21778;DHT22;11050;52.222;20.916;2023-07-29T11:25:09;28.10;72.10
21778;DHT22;11050;52.222;20.916;2023-07-29T11:27:37;28.30;70.60
21778;DHT22;11050;52.222;20.916;2023-07-29T11:30:05;28.60;68.30
21778;DHT22;11050;52.222;20.916;2023-07-29T11:32:34;28.70;64.70
21778;DHT22;11050;52.222;20.916;2023-07-29T11:35:06;28.90;63.40
21778;DHT22;11050;52.222;20.916;2023-07-29T11:37:34;29.00;65.70
21778;DHT22;11050;52.222;20.916;2023-07-29T11:40:00;29.20;61.10
21778;DHT22;11050;52.222;20.916;2023-07-29T11:42:27;29.30;60.60
21778;DHT22;11050;52.222;20.916;2023-07-29T11:44:57;29.50;58.90
21778;DHT22;11050;52.222;20.916;2023-07-29T11:47:24;29.60;58.10
21778;DHT22;11050;52.222;20.916;2023-07-29T11:49:49;29.90;57.60
21778;DHT22;11050;52.222;20.916;2023-07-29T11:52:15;30.00;57.10
21778;DHT22;11050;52.222;20.916;2023-07-29T11:54:49;30.30;57.20
21778;DHT22;11050;52.222;20.916;2023-07-29T11:57:16;30.40;57.50
21778;DHT22;11050;52.222;20.916;2023-07-29T11:59:43;30.70;56.00
21778;DHT22;11050;52.222;20.916;2023-07-29T12:02:20;30.90;55.50
21778;DHT22;11050;52.222;20.916;2023-07-29T12:04:47;31.00;54.70
21778;DHT22;11050;52.222;20.916;2023-07-29T12:07:16;31.00;52.90
21778;DHT22;11050;52.222;20.916;2023-07-29T12:09:43;31.20;52.80
21778;DHT22;11050;52.222;20.916;2023-07-29T12:12:09;31.40;53.50
21778;DHT22;11050;52.222;20.916;2023-07-29T12:14:35;31.60;51.50
21778;DHT22;11050;52.222;20.916;2023-07-29T12:17:06;31.70;52.70
21778;DHT22;11050;52.222;20.916;2023-07-29T12:19:41;31.80;51.50
21778;DHT22;11050;52.222;20.916;2023-07-29T12:22:09;31.90;52.20
21778;DHT22;11050;52.222;20.916;2023-07-29T12:24:38;31.80;51.10
21778;DHT22;11050;52.222;20.916;2023-07-29T12:27:05;31.90;51.00
21778;DHT22;11050;52.222;20.916;2023-07-29T12:29:40;31.90;50.40
21778;DHT22;11050;52.222;20.916;2023-07-29T12:32:07;31.90;50.10
21778;DHT22;11050;52.222;20.916;2023-07-29T12:34:35;31.60;49.60
21778;DHT22;11050;52.222;20.916;2023-07-29T12:37:04;31.40;50.60
21778;DHT22;11050;52.222;20.916;2023-07-29T12:39:33;31.30;52.20
21778;DHT22;11050;52.222;20.916;2023-07-29T12:42:01;31.30;50.50
21778;DHT22;11050;52.222;20.916;2023-07-29T12:44:32;31.40;49.50
21778;DHT22;11050;52.222;20.916;2023-07-29T12:47:04;31.60;49.40
21778;DHT22;11050;52.222;20.916;2023-07-29T12:49:31;31.80;49.50
21778;DHT22;11050;52.222;20.916;2023-07-29T12:52:00;32.10;48.90
21778;DHT22;11050;52.222;20.916;2023-07-29T12:54:26;32.40;48.60
21778;DHT22;11050;52.222;20.916;2023-07-29T12:56:52;32.50;48.10
21778;DHT22;11050;52.222;20.916;2023-07-29T12:59:20;32.30;48.10
21778;DHT22;11050;52.222;20.916;2023-07-29T13:01:46;32.10;48.40
21778;DHT22;11050;52.222;20.916;2023-07-29T13:04:12;32.10;48.70
21778;DHT22;11050;52.222;20.916;2023-07-29T13:06:38;32.30;48.70
21778;DHT22;11050;52.222;20.916;2023-07-29T13:09:04;32.70;47.40
21778;DHT22;11050;52.222;20.916;2023-07-29T13:11:31;33.00;47.00
21778;DHT22;11050;52.222;20.916;2023-07-29T13:13:58;33.50;45.50
21778;DHT22;11050;52.222;20.916;2023-07-29T13:16:23;33.70;46.20
21778;DHT22;11050;52.222;20.916;2023-07-29T13:18:49;34.00;44.50
21778;DHT22;11050;52.222;20.916;2023-07-29T13:21:15;34.10;44.00
21778;DHT22;11050;52.222;20.916;2023-07-29T13:23:41;34.30;43.90
21778;DHT22;11050;52.222;20.916;2023-07-29T13:26:06;34.50;43.40
21778;DHT22;11050;52.222;20.916;2023-07-29T13:28:32;34.80;44.00
21778;DHT22;11050;52.222;20.916;2023-07-29T13:30:58;35.10;42.90
21778;DHT22;11050;52.222;20.916;2023-07-29T13:33:24;35.20;41.90
21778;DHT22;11050;52.222;20.916;2023-07-29T13:35:49;35.40;41.80
21778;DHT22;11050;52.222;20.916;2023-07-29T13:38:15;35.60;41.20
21778;DHT22;11050;52.222;20.916;2023-07-29T13:40:41;35.70;40.70
21778;DHT22;11050;52.222;20.916;2023-07-29T13:43:07;35.90;40.30
21778;DHT22;11050;52.222;20.916;2023-07-29T13:45:34;36.20;40.40
21778;DHT22;11050;52.222;20.916;2023-07-29T13:48:00;36.40;39.70
21778;DHT22;11050;52.222;20.916;2023-07-29T13:50:25;36.50;39.70
21778;DHT22;11050;52.222;20.916;2023-07-29T13:52:51;36.50;39.40
21778;DHT22;11050;52.222;20.916;2023-07-29T13:55:17;36.50;39.10
21778;DHT22;11050;52.222;20.916;2023-07-29T13:57:43;36.60;39.40
21778;DHT22;11050;52.222;20.916;2023-07-29T14:00:08;36.80;38.90
21778;DHT22;11050;52.222;20.916;2023-07-29T14:02:34;37.00;38.90
21778;DHT22;11050;52.222;20.916;2023-07-29T14:05:00;37.00;37.80
21778;DHT22;11050;52.222;20.916;2023-07-29T14:07:26;37.00;37.90
21778;DHT22;11050;52.222;20.916;2023-07-29T14:09:52;36.80;37.90
21778;DHT22;11050;52.222;20.916;2023-07-29T14:12:17;36.60;38.50
21778;DHT22;11050;52.222;20.916;2023-07-29T14:14:43;36.20;38.00
21778;DHT22;11050;52.222;20.916;2023-07-29T14:17:09;35.80;38.70
21778;DHT22;11050;52.222;20.916;2023-07-29T14:19:36;35.30;39.50
21778;DHT22;11050;52.222;20.916;2023-07-29T14:22:03;34.80;40.50
21778;DHT22;11050;52.222;20.916;2023-07-29T14:24:29;34.30;41.20
21778;DHT22;11050;52.222;20.916;2023-07-29T14:26:55;34.30;41.80
21778;DHT22;11050;52.222;20.916;2023-07-29T14:29:21;34.40;42.30
21778;DHT22;11050;52.222;20.916;2023-07-29T14:31:46;34.60;41.80
21778;DHT22;11050;52.222;20.916;2023-07-29T14:34:12;34.70;42.10
21778;DHT22;11050;52.222;20.916;2023-07-29T14:36:38;34.80;43.70
21778;DHT22;11050;52.222;20.916;2023-07-29T14:39:04;35.00;42.80
21778;DHT22;11050;52.222;20.916;2023-07-29T14:41:30;35.20;43.00
21778;DHT22;11050;52.222;20.916;2023-07-29T14:43:56;35.30;43.00
21778;DHT22;11050;52.222;20.916;2023-07-29T14:46:22;35.30;41.00
21778;DHT22;11050;52.222;20.916;2023-07-29T14:48:48;35.30;42.30
21778;DHT22;11050;52.222;20.916;2023-07-29T14:51:14;35.30;41.40
21778;DHT22;11050;52.222;20.916;2023-07-29T14:53:40;35.40;40.00
21778;DHT22;11050;52.222;20.916;2023-07-29T14:56:06;35.50;40.50
21778;DHT22;11050;52.222;20.916;2023-07-29T14:58:32;35.30;40.50
21778;DHT22;11050;52.222;20.916;2023-07-29T15:00:58;35.10;40.20
21778;DHT22;11050;52.222;20.916;2023-07-29T15:03:24;34.80;40.70
21778;DHT22;11050;52.222;20.916;2023-07-29T15:05:50;34.70;41.00
21778;DHT22;11050;52.222;20.916;2023-07-29T15:08:16;34.70;41.70
21778;DHT22;11050;52.222;20.916;2023-07-29T15:10:46;34.90;42.20
21778;DHT22;11050;52.222;20.916;2023-07-29T15:13:13;35.00;41.70
21778;DHT22;11050;52.222;20.916;2023-07-29T15:15:43;34.80;41.20
21778;DHT22;11050;52.222;20.916;2023-07-29T15:18:09;34.50;41.40
21778;DHT22;11050;52.222;20.916;2023-07-29T15:20:36;34.20;41.80
21778;DHT22;11050;52.222;20.916;2023-07-29T15:23:01;33.90;42.00
21778;DHT22;11050;52.222;20.916;2023-07-29T15:25:27;33.60;43.10
21778;DHT22;11050;52.222;20.916;2023-07-29T15:27:53;33.40;44.40
21778;DHT22;11050;52.222;20.916;2023-07-29T15:30:19;33.10;44.00
21778;DHT22;11050;52.222;20.916;2023-07-29T15:32:45;32.90;45.00
21778;DHT22;11050;52.222;20.916;2023-07-29T15:35:11;32.60;46.10
21778;DHT22;11050;52.222;20.916;2023-07-29T15:37:37;32.30;47.40